createdAt,value
2017-09-13T00:00:01.128Z,4.58
2017-09-13T00:02:29.419Z,9.18
2017-09-13T00:04:57.693Z,9.16
2017-09-13T00:07:25.979Z,6.18
2017-09-13T00:09:54.300Z,3.34
2017-09-13T00:12:22.557Z,4.28
2017-09-13T00:14:50.844Z,5.78
2017-09-13T00:17:19.147Z,9.10
2017-09-13T00:19:47.421Z,10.98
2017-09-13T00:22:16.895Z,11.62
2017-09-13T00:24:46.133Z,3.82
2017-09-13T00:27:14.394Z,7.08
2017-09-13T00:29:42.699Z,7.30
2017-09-13T00:32:10.975Z,7.28
2017-09-13T00:34:39.243Z,4.20
2017-09-13T00:37:08.880Z,7.32
2017-09-13T00:39:38.068Z,7.84
2017-09-13T00:42:10.196Z,5.16
2017-09-13T00:44:38.451Z,9.62
2017-09-13T00:47:07.658Z,7.48
2017-09-13T00:49:35.960Z,9.88
2017-09-13T00:52:04.263Z,6.18
2017-09-13T00:54:32.551Z,6.52
2017-09-13T00:57:00.808Z,9.92
2017-09-13T00:59:29.094Z,4.36
2017-09-13T01:01:57.392Z,5.26
2017-09-13T01:04:25.644Z,5.80
2017-09-13T01:06:53.937Z,9.14
2017-09-13T01:09:22.182Z,3.76
2017-09-13T01:11:50.462Z,6.18
2017-09-13T01:14:18.737Z,8.78
2017-09-13T01:16:46.987Z,5.52
2017-09-13T01:19:16.583Z,8.04
2017-09-13T01:21:44.866Z,6.26
2017-09-13T01:24:13.120Z,9.46
2017-09-13T01:26:41.411Z,6.48
2017-09-13T01:29:09.676Z,6.42
2017-09-13T01:31:38.495Z,6.36
2017-09-13T01:34:07.847Z,8.82
2017-09-13T01:36:37.351Z,5.60
2017-09-13T01:39:05.634Z,7.74
2017-09-13T01:41:33.886Z,5.70
2017-09-13T01:44:02.127Z,8.36
2017-09-13T01:46:30.409Z,20.60
2017-09-13T01:48:58.663Z,7.90
2017-09-13T01:51:26.959Z,8.50
2017-09-13T01:53:55.228Z,9.70
2017-09-13T01:56:23.491Z,13.86
2017-09-13T01:58:51.775Z,6.72
2017-09-13T02:01:20.024Z,9.44
2017-09-13T02:03:48.307Z,7.36
2017-09-13T02:06:16.596Z,10.90
2017-09-13T02:08:44.733Z,12.86
2017-09-13T02:11:13.014Z,14.26
2017-09-13T02:13:41.295Z,8.88
2017-09-13T02:16:09.543Z,4.60
2017-09-13T02:18:38.690Z,11.16
2017-09-13T02:21:07.995Z,6.06
2017-09-13T02:23:36.943Z,8.94
2017-09-13T02:26:05.190Z,7.26
2017-09-13T02:28:33.473Z,8.38
2017-09-13T02:31:01.755Z,8.40
2017-09-13T02:33:29.994Z,11.74
2017-09-13T02:35:58.285Z,3.86
2017-09-13T02:38:26.535Z,10.44
2017-09-13T02:40:54.795Z,8.38
2017-09-13T02:43:23.089Z,6.20
2017-09-13T02:45:51.355Z,6.68
2017-09-13T02:48:19.620Z,10.20
2017-09-13T02:50:47.902Z,6.34
2017-09-13T02:53:16.192Z,9.32
2017-09-13T02:55:45.224Z,5.52
2017-09-13T02:58:13.512Z,6.10
2017-09-13T03:00:41.800Z,7.18
2017-09-13T03:03:10.082Z,7.80
2017-09-13T03:05:38.362Z,5.72
2017-09-13T03:08:08.562Z,6.64
2017-09-13T03:10:38.051Z,8.26
2017-09-13T03:13:06.339Z,11.10
2017-09-13T03:15:34.597Z,10.04
2017-09-13T03:18:02.891Z,8.28
2017-09-13T03:20:31.134Z,7.12
2017-09-13T03:22:59.387Z,8.60
2017-09-13T03:25:27.671Z,3.84
2017-09-13T03:27:55.938Z,10.18
2017-09-13T03:30:24.229Z,16.56
2017-09-13T03:32:52.490Z,10.82
2017-09-13T03:35:20.778Z,7.52
2017-09-13T03:37:49.028Z,7.98
2017-09-13T03:40:17.277Z,4.44
2017-09-13T03:42:46.222Z,5.06
2017-09-13T03:45:15.171Z,8.80
2017-09-13T03:47:43.434Z,7.40
2017-09-13T03:50:11.710Z,9.74
2017-09-13T03:52:39.950Z,8.42
2017-09-13T03:55:09.396Z,3.80
2017-09-13T03:57:38.902Z,6.86
2017-09-13T04:00:08.159Z,9.68
2017-09-13T04:02:36.406Z,5.94
2017-09-13T04:05:04.663Z,5.38
2017-09-13T04:07:32.951Z,3.10
2017-09-13T04:10:01.230Z,5.94
2017-09-13T04:12:29.504Z,6.36
2017-09-13T04:14:57.767Z,3.72
2017-09-13T04:17:26.060Z,6.90
2017-09-13T04:19:54.316Z,6.00
2017-09-13T04:22:22.599Z,3.68
2017-09-13T04:24:50.851Z,2.42
2017-09-13T04:27:19.135Z,3.64
2017-09-13T04:29:47.400Z,3.96
2017-09-13T04:32:16.610Z,2.20
2017-09-13T04:34:44.875Z,5.72
2017-09-13T04:37:13.116Z,2.04
2017-09-13T04:39:41.403Z,2.00
2017-09-13T04:42:09.650Z,5.98
2017-09-13T04:44:38.776Z,5.54
2017-09-13T04:47:07.899Z,3.76
2017-09-13T04:49:36.953Z,4.26
2017-09-13T04:52:05.194Z,1.88
2017-09-13T04:54:33.474Z,2.60
2017-09-13T04:57:01.736Z,2.14
2017-09-13T04:59:31.022Z,2.10
2017-09-13T05:01:59.311Z,2.20
2017-09-13T05:04:27.578Z,5.40
2017-09-13T05:06:55.867Z,3.22
2017-09-13T05:09:24.129Z,4.20
2017-09-13T05:11:52.381Z,1.96
2017-09-13T05:14:20.670Z,2.38
2017-09-13T05:16:48.927Z,1.60
2017-09-13T05:19:17.203Z,2.58
2017-09-13T05:21:46.916Z,2.84
2017-09-13T05:24:15.687Z,2.04
2017-09-13T05:26:44.754Z,1.60
2017-09-13T05:29:13.055Z,1.50
2017-09-13T05:31:41.354Z,2.70
2017-09-13T05:34:13.343Z,2.92
2017-09-13T05:36:41.598Z,1.76
2017-09-13T05:39:09.871Z,1.94
2017-09-13T05:41:38.994Z,1.98
2017-09-13T05:44:08.248Z,1.60
2017-09-13T05:46:36.504Z,1.78
2017-09-13T05:49:04.778Z,2.48
2017-09-13T05:51:33.059Z,2.20
2017-09-13T05:54:01.360Z,3.82
2017-09-13T05:56:29.611Z,1.80
2017-09-13T05:58:57.855Z,1.94
2017-09-13T06:01:26.141Z,2.12
2017-09-13T06:03:54.396Z,2.38
2017-09-13T06:06:22.686Z,4.58
2017-09-13T06:08:50.931Z,1.88
2017-09-13T06:11:19.174Z,3.94
2017-09-13T06:13:47.446Z,1.92
2017-09-13T06:16:16.413Z,4.08
2017-09-13T06:18:45.347Z,3.30
2017-09-13T06:21:13.625Z,2.80
2017-09-13T06:23:41.876Z,6.48
2017-09-13T06:26:10.175Z,3.02
2017-09-13T06:28:38.791Z,6.34
2017-09-13T06:31:07.640Z,3.96
2017-09-13T06:33:35.930Z,3.06
2017-09-13T06:36:04.187Z,6.98
2017-09-13T06:38:32.432Z,4.88
2017-09-13T06:41:00.719Z,3.90
2017-09-13T06:43:28.962Z,3.68
2017-09-13T06:45:57.243Z,7.56
2017-09-13T06:48:25.498Z,6.94
2017-09-13T06:50:53.795Z,6.40
2017-09-13T06:53:22.048Z,5.12
2017-09-13T06:55:50.302Z,4.72
2017-09-13T06:58:18.623Z,4.76
2017-09-13T07:00:46.893Z,5.44
2017-09-13T07:03:22.782Z,10.04
2017-09-13T07:05:51.071Z,6.36
2017-09-13T07:08:19.326Z,9.06
2017-09-13T07:10:47.582Z,6.42
2017-09-13T07:13:17.167Z,6.90
2017-09-13T07:15:46.581Z,12.32
2017-09-13T07:18:15.879Z,10.04
2017-09-13T07:20:44.624Z,10.00
2017-09-13T07:23:12.888Z,10.02
2017-09-13T07:25:41.159Z,12.68
2017-09-13T07:28:09.406Z,7.52
2017-09-13T07:30:38.832Z,7.40
2017-09-13T07:33:08.140Z,11.88
2017-09-13T07:35:36.406Z,7.40
2017-09-13T07:38:04.744Z,21.44
2017-09-13T07:40:33.012Z,26.06
2017-09-13T07:43:01.283Z,12.18
2017-09-13T07:45:29.559Z,13.70
2017-09-13T07:47:57.819Z,14.00
2017-09-13T07:50:26.121Z,11.86
2017-09-13T07:52:54.387Z,14.18
2017-09-13T07:55:22.650Z,22.34
2017-09-13T07:57:50.941Z,20.04
2017-09-13T08:00:19.244Z,12.52
2017-09-13T08:02:46.735Z,14.14
2017-09-13T08:05:21.468Z,14.26
2017-09-13T08:07:49.728Z,9.94
2017-09-13T08:10:18.020Z,10.88
2017-09-13T08:12:46.273Z,13.10
2017-09-13T08:15:14.590Z,16.00
2017-09-13T08:17:42.882Z,14.88
2017-09-13T08:20:11.135Z,14.94
2017-09-13T08:22:39.423Z,9.36
2017-09-13T08:25:08.787Z,13.64
2017-09-13T08:27:37.910Z,12.82
2017-09-13T08:30:06.816Z,12.40
2017-09-13T08:32:36.018Z,15.14
2017-09-13T08:35:04.304Z,13.18
2017-09-13T08:37:32.600Z,17.60
2017-09-13T08:40:00.882Z,21.28
2017-09-13T08:42:29.183Z,15.84
2017-09-13T08:44:58.281Z,18.02
2017-09-13T08:47:26.575Z,9.04
2017-09-13T08:49:54.840Z,17.20
2017-09-13T08:52:22.344Z,14.62
2017-09-13T08:54:50.627Z,16.08
2017-09-13T08:57:18.886Z,16.94
2017-09-13T08:59:47.208Z,12.02
2017-09-13T09:02:18.787Z,23.22
2017-09-13T09:04:47.075Z,12.50
2017-09-13T09:07:14.615Z,9.44
2017-09-13T09:09:42.891Z,11.88
2017-09-13T09:12:11.186Z,15.52
2017-09-13T09:14:39.453Z,22.48
2017-09-13T09:17:08.803Z,13.24
2017-09-13T09:19:38.121Z,13.08
2017-09-13T09:22:06.416Z,15.64
2017-09-13T09:24:34.695Z,11.18
2017-09-13T09:27:08.432Z,15.14
2017-09-13T09:29:35.930Z,14.54
2017-09-13T09:32:04.194Z,8.04
2017-09-13T09:34:32.474Z,16.54
2017-09-13T09:37:00.721Z,15.32
2017-09-13T09:39:29.019Z,11.08
2017-09-13T09:41:57.953Z,12.70
2017-09-13T09:44:26.309Z,12.94
2017-09-13T09:46:54.613Z,8.26
2017-09-13T09:49:22.889Z,10.92
2017-09-13T09:51:51.176Z,11.20
2017-09-13T09:54:19.501Z,16.00
2017-09-13T09:56:47.754Z,9.12
2017-09-13T09:59:17.063Z,17.66
2017-09-13T10:01:46.044Z,15.86
2017-09-13T10:04:15.332Z,14.94
2017-09-13T10:06:45.104Z,10.42
2017-09-13T10:09:13.407Z,9.08
2017-09-13T10:11:41.729Z,9.60
2017-09-13T10:14:10.004Z,11.64
2017-09-13T10:16:38.980Z,11.22
2017-09-13T10:19:07.240Z,17.96
2017-09-13T10:21:35.570Z,9.80
2017-09-13T10:24:03.855Z,15.62
2017-09-13T10:26:32.147Z,9.62
2017-09-13T10:29:00.452Z,11.84
2017-09-13T10:31:28.718Z,13.04
2017-09-13T10:33:57.025Z,14.68
2017-09-13T10:36:25.279Z,13.42
2017-09-13T10:38:53.531Z,13.56
2017-09-13T10:41:21.867Z,13.82
2017-09-13T10:43:50.131Z,6.02
2017-09-13T10:46:18.387Z,10.44
2017-09-13T10:48:46.686Z,5.82
2017-09-13T10:51:15.792Z,12.26
2017-09-13T10:53:44.580Z,9.32
2017-09-13T10:56:12.834Z,13.64
2017-09-13T10:58:41.091Z,12.00
2017-09-13T11:01:08.808Z,10.60
2017-09-13T11:03:37.651Z,8.70
2017-09-13T11:06:05.933Z,11.82
2017-09-13T11:08:34.223Z,6.38
2017-09-13T11:11:02.484Z,6.30
2017-09-13T11:13:30.771Z,6.46
2017-09-13T11:15:59.039Z,12.22
2017-09-13T11:18:27.333Z,6.16
2017-09-13T11:20:55.625Z,10.36
2017-09-13T11:23:23.894Z,7.88
2017-09-13T11:25:52.194Z,10.52
2017-09-13T11:28:20.461Z,7.60
2017-09-13T11:30:48.725Z,8.02
2017-09-13T11:33:17.025Z,6.50
2017-09-13T11:35:46.146Z,10.06
2017-09-13T11:38:15.356Z,6.26
2017-09-13T11:40:43.623Z,6.60
2017-09-13T11:43:11.973Z,5.92
2017-09-13T11:45:40.254Z,10.58
2017-09-13T11:48:08.500Z,7.22
2017-09-13T11:50:37.265Z,8.18
2017-09-13T11:53:05.527Z,10.42
2017-09-13T11:55:33.827Z,7.44
2017-09-13T11:58:02.080Z,5.30
2017-09-13T12:00:30.366Z,3.92
2017-09-13T12:02:58.646Z,5.96
2017-09-13T12:05:26.904Z,10.02
2017-09-13T12:07:55.195Z,7.02
2017-09-13T12:10:22.716Z,6.72
2017-09-13T12:12:50.962Z,6.30
2017-09-13T12:15:19.262Z,4.40
2017-09-13T12:17:47.529Z,4.54
2017-09-13T12:20:17.053Z,7.86
2017-09-13T12:22:46.714Z,4.92
2017-09-13T12:25:21.061Z,5.54
2017-09-13T12:27:49.321Z,9.62
2017-09-13T12:30:17.585Z,9.92
2017-09-13T12:32:47.077Z,13.48
2017-09-13T12:35:16.038Z,12.30
2017-09-13T12:37:44.321Z,15.02
2017-09-13T12:40:11.860Z,9.84
2017-09-13T12:42:40.120Z,10.82
2017-09-13T12:45:08.434Z,7.74
2017-09-13T12:47:37.662Z,8.74
2017-09-13T12:50:05.929Z,6.42
2017-09-13T12:52:34.240Z,8.10
2017-09-13T12:55:02.499Z,6.00
2017-09-13T12:57:30.797Z,7.30
2017-09-13T12:59:59.054Z,4.38
2017-09-13T13:02:27.348Z,13.48
2017-09-13T13:04:55.648Z,6.42
2017-09-13T13:07:23.910Z,6.54
2017-09-13T13:09:52.191Z,5.62
2017-09-13T13:12:21.343Z,6.40
2017-09-13T13:14:49.632Z,3.90
2017-09-13T13:17:17.886Z,8.52
2017-09-13T13:19:47.253Z,6.86
2017-09-13T13:22:16.435Z,5.56
2017-09-13T13:24:46.103Z,4.52
2017-09-13T13:27:15.531Z,10.88
2017-09-13T13:29:43.801Z,3.80
2017-09-13T13:32:16.741Z,5.84
2017-09-13T13:34:45.912Z,5.98
2017-09-13T13:37:14.735Z,6.82
2017-09-13T13:39:43.004Z,4.76
2017-09-13T13:42:11.314Z,8.98
2017-09-13T13:44:39.576Z,4.96
2017-09-13T13:47:09.192Z,8.88
2017-09-13T13:49:37.485Z,4.52
2017-09-13T13:52:05.791Z,7.28
2017-09-13T13:54:34.067Z,5.44
2017-09-13T13:57:02.335Z,8.66
2017-09-13T13:59:29.874Z,6.70
2017-09-13T14:01:58.145Z,4.54
2017-09-13T14:04:26.423Z,4.88
2017-09-13T14:06:54.715Z,5.96
2017-09-13T14:09:23.034Z,8.48
2017-09-13T14:11:51.382Z,4.94
2017-09-13T14:14:19.644Z,4.74
2017-09-13T14:16:47.941Z,14.44
2017-09-13T14:19:16.369Z,8.06
2017-09-13T14:21:45.505Z,6.62
2017-09-13T14:24:13.768Z,6.32
2017-09-13T14:26:42.027Z,7.98
2017-09-13T14:29:10.332Z,10.68
2017-09-13T14:31:38.623Z,7.80
2017-09-13T14:34:07.942Z,7.80
2017-09-13T14:36:36.886Z,4.48
2017-09-13T14:39:05.180Z,6.58
2017-09-13T14:41:33.440Z,4.54
2017-09-13T14:44:09.087Z,7.48
2017-09-13T14:46:37.342Z,7.64
2017-09-13T14:49:05.612Z,5.88
2017-09-13T14:51:33.912Z,8.52
2017-09-13T14:54:02.180Z,8.96
2017-09-13T14:56:30.587Z,9.52
2017-09-13T14:58:58.948Z,4.92
2017-09-13T15:01:27.244Z,4.18
2017-09-13T15:03:56.479Z,3.64
2017-09-13T15:06:24.812Z,7.06
2017-09-13T15:08:53.080Z,6.36
2017-09-13T15:11:21.398Z,6.16
2017-09-13T15:13:49.770Z,5.60
2017-09-13T15:16:18.357Z,9.86
2017-09-13T15:18:46.640Z,4.90
2017-09-13T15:21:15.826Z,5.40
2017-09-13T15:23:44.775Z,7.36
2017-09-13T15:26:13.054Z,5.68
2017-09-13T15:28:41.347Z,5.66
2017-09-13T15:31:09.695Z,9.52
2017-09-13T15:33:38.716Z,5.52
2017-09-13T15:36:08.479Z,5.52
2017-09-13T15:38:37.842Z,6.08
2017-09-13T15:41:06.913Z,8.42
2017-09-13T15:43:35.252Z,7.08
2017-09-13T15:46:03.616Z,7.50
2017-09-13T15:48:31.910Z,5.18
2017-09-13T15:51:00.943Z,9.68
2017-09-13T15:53:29.356Z,11.20
2017-09-13T15:55:57.623Z,6.32
2017-09-13T15:58:25.920Z,4.32
2017-09-13T16:00:55.012Z,6.26
2017-09-13T16:03:23.374Z,8.30
2017-09-13T16:05:51.659Z,8.86
2017-09-13T16:08:19.968Z,11.08
2017-09-13T16:10:48.277Z,7.80
2017-09-13T16:13:16.546Z,8.00
2017-09-13T16:15:46.140Z,14.04
2017-09-13T16:18:15.051Z,7.42
2017-09-13T16:20:43.362Z,4.30
2017-09-13T16:23:11.693Z,6.12
2017-09-13T16:25:39.964Z,6.58
2017-09-13T16:28:09.348Z,8.36
2017-09-13T16:30:38.943Z,7.30
2017-09-13T16:33:08.061Z,7.14
2017-09-13T16:35:36.378Z,3.62
2017-09-13T16:38:04.658Z,9.60
2017-09-13T16:40:36.423Z,7.42
2017-09-13T16:43:04.696Z,7.22
2017-09-13T16:45:32.998Z,5.34
2017-09-13T16:48:01.306Z,7.24
2017-09-13T16:50:28.864Z,6.74
2017-09-13T16:52:57.136Z,3.56
2017-09-13T16:55:25.418Z,6.96
2017-09-13T16:57:53.719Z,3.94
2017-09-13T17:00:22.020Z,5.46
2017-09-13T17:02:50.306Z,5.14
2017-09-13T17:05:18.571Z,6.08
2017-09-13T17:07:46.903Z,6.36
2017-09-13T17:10:15.169Z,5.60
2017-09-13T17:12:43.434Z,4.52
2017-09-13T17:15:11.748Z,4.54
2017-09-13T17:17:40.040Z,6.06
2017-09-13T17:20:08.995Z,3.92
2017-09-13T17:22:37.261Z,5.18
2017-09-13T17:25:05.524Z,5.58
2017-09-13T17:27:33.820Z,4.00
2017-09-13T17:30:01.311Z,3.64
2017-09-13T17:32:29.596Z,3.94
2017-09-13T17:34:57.861Z,6.82
2017-09-13T17:37:26.165Z,4.16
2017-09-13T17:39:54.452Z,7.22
2017-09-13T17:42:21.961Z,3.80
2017-09-13T17:44:50.260Z,5.96
2017-09-13T17:47:18.551Z,7.36
2017-09-13T17:49:46.860Z,5.86
2017-09-13T17:52:15.131Z,4.40
2017-09-13T17:54:43.438Z,7.76
2017-09-13T17:57:11.757Z,10.06
2017-09-13T17:59:40.017Z,5.40
2017-09-13T18:02:08.832Z,9.22
2017-09-13T18:04:38.060Z,7.02
2017-09-13T18:07:07.076Z,6.06
2017-09-13T18:09:35.405Z,3.76
2017-09-13T18:12:03.703Z,6.18
2017-09-13T18:14:31.992Z,6.96
2017-09-13T18:17:00.329Z,8.76
2017-09-13T18:19:28.601Z,6.50
2017-09-13T18:21:56.865Z,5.82
2017-09-13T18:24:25.177Z,4.86
2017-09-13T18:26:53.444Z,13.06
2017-09-13T18:29:21.756Z,7.66
2017-09-13T18:31:50.028Z,5.74
2017-09-13T18:34:18.301Z,3.84
2017-09-13T18:36:46.607Z,4.64
2017-09-13T18:39:15.494Z,5.94
2017-09-13T18:41:43.751Z,7.68
2017-09-13T18:44:12.040Z,6.64
2017-09-13T18:46:40.332Z,9.18
2017-09-13T18:49:08.642Z,8.26
2017-09-13T18:51:37.993Z,6.20
2017-09-13T18:54:08.117Z,6.50
2017-09-13T18:56:36.381Z,16.22
2017-09-13T18:59:04.647Z,3.84
2017-09-13T19:01:32.945Z,8.90
2017-09-13T19:04:01.213Z,10.54
2017-09-13T19:06:29.508Z,7.58
2017-09-13T19:08:57.791Z,6.42
2017-09-13T19:11:26.059Z,7.78
2017-09-13T19:13:54.374Z,7.56
2017-09-13T19:16:22.673Z,9.30
2017-09-13T19:18:50.967Z,6.22
2017-09-13T19:21:19.224Z,6.60
2017-09-13T19:23:47.722Z,6.48
2017-09-13T19:26:16.721Z,12.72
2017-09-13T19:28:46.016Z,12.28
2017-09-13T19:31:14.757Z,11.88
2017-09-13T19:33:43.019Z,8.18
2017-09-13T19:36:11.321Z,9.68
2017-09-13T19:38:38.827Z,14.76
2017-09-13T19:41:08.119Z,8.34
2017-09-13T19:43:36.832Z,7.48
2017-09-13T19:46:05.095Z,8.06
2017-09-13T19:48:33.355Z,8.46
2017-09-13T19:51:01.646Z,8.58
2017-09-13T19:53:29.917Z,6.78
2017-09-13T19:55:58.223Z,5.76
2017-09-13T19:58:26.489Z,5.94
2017-09-13T20:00:54.752Z,4.82
2017-09-13T20:03:23.046Z,5.92
2017-09-13T20:05:51.318Z,7.84
2017-09-13T20:08:19.621Z,7.16
2017-09-13T20:10:47.877Z,7.14
2017-09-13T20:13:16.909Z,9.10
2017-09-13T20:15:45.709Z,8.16
2017-09-13T20:18:14.030Z,7.74
2017-09-13T20:20:43.224Z,16.16
2017-09-13T20:23:11.515Z,4.50
2017-09-13T20:25:39.829Z,13.64
2017-09-13T20:28:08.919Z,7.54
2017-09-13T20:30:37.936Z,7.62
2017-09-13T20:33:05.500Z,7.50
2017-09-13T20:35:33.768Z,7.56
2017-09-13T20:38:02.059Z,10.20
2017-09-13T20:40:30.464Z,9.46
2017-09-13T20:42:58.740Z,6.42
2017-09-13T20:45:27.049Z,8.10
2017-09-13T20:47:58.947Z,10.10
2017-09-13T20:50:27.259Z,10.88
2017-09-13T20:52:55.511Z,8.88
2017-09-13T20:55:23.771Z,10.50
2017-09-13T20:57:52.083Z,7.92
2017-09-13T21:00:20.361Z,9.88
2017-09-13T21:02:48.652Z,7.28
2017-09-13T21:05:16.937Z,10.38
2017-09-13T21:07:45.277Z,8.86
2017-09-13T21:10:13.570Z,14.54
2017-09-13T21:12:41.856Z,11.64
2017-09-13T21:15:10.169Z,13.34
2017-09-13T21:17:38.424Z,18.04
2017-09-13T21:20:07.749Z,11.28
2017-09-13T21:22:36.052Z,18.06
2017-09-13T21:25:04.356Z,15.58
2017-09-13T21:27:32.681Z,12.64
2017-09-13T21:30:00.179Z,10.20
2017-09-13T21:32:28.436Z,16.16
2017-09-13T21:34:56.726Z,8.86
2017-09-13T21:37:24.996Z,14.80
2017-09-13T21:39:56.339Z,16.66
2017-09-13T21:42:24.595Z,17.00
2017-09-13T21:44:52.853Z,15.44
2017-09-13T21:47:21.145Z,10.36
2017-09-13T21:49:49.500Z,14.20
2017-09-13T21:52:17.785Z,10.04
2017-09-13T21:54:47.219Z,13.00
2017-09-13T21:57:16.849Z,16.52
2017-09-13T21:59:46.143Z,17.62
2017-09-13T22:02:14.917Z,17.92
2017-09-13T22:04:43.179Z,10.74
2017-09-13T22:07:11.436Z,12.68
2017-09-13T22:09:39.744Z,6.46
2017-09-13T22:14:48.911Z,7.22
2017-09-13T22:17:17.183Z,7.76
2017-09-13T22:19:45.441Z,5.22
2017-09-13T22:22:13.743Z,7.34
2017-09-13T22:24:42.022Z,14.76
2017-09-13T22:27:10.328Z,18.76
2017-09-13T22:29:38.592Z,10.70
2017-09-13T22:32:09.789Z,11.32
2017-09-13T22:34:39.235Z,10.10
2017-09-13T22:37:10.851Z,9.44
2017-09-13T22:39:39.116Z,9.94
2017-09-13T22:42:07.801Z,11.34
2017-09-13T22:44:36.833Z,6.04
2017-09-13T22:47:05.127Z,5.50
2017-09-13T22:49:33.384Z,10.86
2017-09-13T22:52:01.663Z,8.62
2017-09-13T22:54:29.923Z,8.50
2017-09-13T22:56:58.220Z,10.52
2017-09-13T22:59:26.479Z,8.54
2017-09-13T23:01:54.772Z,10.52
2017-09-13T23:04:23.031Z,14.62
2017-09-13T23:06:51.320Z,13.44
2017-09-13T23:09:19.603Z,8.86
2017-09-13T23:11:47.865Z,7.26
2017-09-13T23:14:17.238Z,7.24
2017-09-13T23:16:46.932Z,9.94
2017-09-13T23:19:15.330Z,8.94
2017-09-13T23:21:43.620Z,11.94
2017-09-13T23:24:11.898Z,15.86
2017-09-13T23:26:40.192Z,12.56
2017-09-13T23:29:08.482Z,13.82
2017-09-13T23:31:37.771Z,10.48
2017-09-13T23:34:06.943Z,12.42
2017-09-13T23:36:35.207Z,17.24
2017-09-13T23:39:03.500Z,10.34
2017-09-13T23:41:31.792Z,10.38
2017-09-13T23:44:00.061Z,13.16
2017-09-13T23:46:28.376Z,10.02
2017-09-13T23:48:56.663Z,11.44
2017-09-13T23:51:24.920Z,9.84
2017-09-13T23:53:53.215Z,12.60
2017-09-13T23:56:21.482Z,10.22
2017-09-13T23:58:49.781Z,8.86
